createdAt,value
2019-01-31T00:02:18.646Z,10.40
2019-01-31T00:05:08.517Z,10.17
2019-01-31T00:07:57.790Z,13.33
2019-01-31T00:10:56.242Z,13.23
2019-01-31T00:13:45.584Z,10.07
2019-01-31T00:16:42.112Z,14.80
2019-01-31T00:19:28.377Z,13.57
2019-01-31T00:22:27.750Z,11.30
2019-01-31T00:25:24.985Z,12.93
2019-01-31T00:28:27.692Z,15.00
2019-01-31T00:31:16.900Z,12.70
2019-01-31T00:33:57.101Z,15.13
2019-01-31T00:36:34.243Z,11.63
2019-01-31T00:39:29.362Z,11.17
2019-01-31T00:42:31.813Z,13.83
2019-01-31T00:45:18.917Z,11.33
2019-01-31T00:48:02.121Z,9.30
2019-01-31T00:50:41.972Z,11.77
2019-01-31T00:53:33.237Z,11.07
2019-01-31T00:56:34.864Z,17.87
2019-01-31T00:59:26.894Z,16.37
2019-01-31T01:02:18.123Z,11.63
2019-01-31T01:05:15.575Z,14.83
2019-01-31T01:08:08.549Z,16.87
2019-01-31T01:10:56.298Z,12.57
2019-01-31T01:13:39.822Z,19.57
2019-01-31T01:16:17.189Z,11.90
2019-01-31T01:19:00.552Z,10.60
2019-01-31T01:21:52.706Z,13.43
2019-01-31T01:24:39.240Z,14.20
2019-01-31T01:27:22.316Z,20.03
2019-01-31T01:30:02.776Z,8.07
2019-01-31T01:32:47.133Z,10.17
2019-01-31T01:35:27.083Z,10.67
2019-01-31T01:38:16.419Z,8.60
2019-01-31T01:41:16.386Z,12.80
2019-01-31T01:43:55.126Z,9.37
2019-01-31T01:46:45.762Z,11.97
2019-01-31T01:49:31.900Z,13.43
2019-01-31T01:52:12.348Z,13.23
2019-01-31T01:54:55.445Z,12.97
2019-01-31T01:57:44.496Z,11.57
2019-01-31T02:00:45.975Z,10.50
2019-01-31T02:03:36.958Z,16.73
2019-01-31T02:06:39.367Z,17.60
2019-01-31T02:09:16.224Z,20.87
2019-01-31T02:12:12.646Z,11.23
2019-01-31T02:14:56.064Z,13.43
2019-01-31T02:17:33.165Z,18.43
2019-01-31T02:20:19.210Z,15.13
2019-01-31T02:23:02.949Z,15.13
2019-01-31T02:26:04.582Z,18.13
2019-01-31T02:28:49.618Z,14.83
2019-01-31T02:31:38.649Z,21.80
2019-01-31T02:34:31.323Z,19.73
2019-01-31T02:37:11.437Z,14.53
2019-01-31T02:39:45.596Z,24.03
2019-01-31T02:42:26.709Z,20.50
2019-01-31T02:45:03.674Z,14.80
2019-01-31T02:47:43.991Z,20.47
2019-01-31T02:50:39.250Z,13.30
2019-01-31T02:53:13.462Z,13.43
2019-01-31T02:55:53.995Z,15.70
2019-01-31T02:58:46.331Z,17.97
2019-01-31T03:01:51.181Z,19.90
2019-01-31T03:04:29.340Z,14.20
2019-01-31T03:07:15.371Z,15.73
2019-01-31T03:10:02.363Z,16.17
2019-01-31T03:12:42.208Z,11.37
2019-01-31T03:15:22.164Z,17.07
2019-01-31T03:18:05.742Z,16.27
2019-01-31T03:21:07.747Z,18.27
2019-01-31T03:23:47.859Z,13.50
2019-01-31T03:26:50.801Z,13.37
2019-01-31T03:29:49.076Z,16.17
2019-01-31T03:32:32.350Z,11.90
2019-01-31T03:35:09.786Z,10.43
2019-01-31T03:38:03.115Z,16.37
2019-01-31T03:40:52.499Z,10.60
2019-01-31T03:43:32.308Z,11.97
2019-01-31T03:46:12.666Z,13.80
2019-01-31T03:49:00.293Z,9.17
2019-01-31T03:51:49.096Z,12.37
2019-01-31T03:54:38.351Z,10.77
2019-01-31T03:57:39.030Z,13.57
2019-01-31T04:00:22.394Z,15.07
2019-01-31T04:02:59.766Z,16.23
2019-01-31T04:05:40.173Z,10.10
2019-01-31T04:08:11.795Z,9.97
2019-01-31T04:10:43.631Z,12.47
2019-01-31T04:13:15.640Z,9.33
2019-01-31T04:15:47.633Z,12.20
2019-01-31T04:18:19.910Z,17.97
2019-01-31T04:20:52.476Z,9.87
2019-01-31T04:23:24.533Z,10.33
2019-01-31T04:25:56.270Z,9.23
2019-01-31T04:28:30.567Z,23.27
2019-01-31T04:31:00.973Z,13.17
2019-01-31T04:33:33.209Z,14.37
2019-01-31T04:36:05.374Z,11.73
2019-01-31T04:38:37.086Z,7.70
2019-01-31T04:41:08.669Z,12.67
2019-01-31T04:43:40.419Z,24.37
2019-01-31T04:46:12.418Z,13.83
2019-01-31T04:48:44.214Z,8.50
2019-01-31T04:51:15.848Z,12.83
2019-01-31T04:53:47.647Z,10.97
2019-01-31T04:56:19.872Z,10.80
2019-01-31T04:58:51.512Z,9.93
2019-01-31T05:01:26.367Z,12.27
2019-01-31T05:03:56.437Z,12.00
2019-01-31T05:06:28.494Z,13.50
2019-01-31T05:09:02.733Z,14.83
2019-01-31T05:11:34.010Z,15.30
2019-01-31T05:14:05.682Z,19.67
2019-01-31T05:16:37.833Z,20.90
2019-01-31T05:19:09.725Z,22.17
2019-01-31T05:21:41.525Z,16.57
2019-01-31T05:24:13.822Z,16.80
2019-01-31T05:26:46.494Z,20.63
2019-01-31T05:29:18.522Z,22.33
2019-01-31T05:31:50.251Z,14.23
2019-01-31T05:34:21.906Z,14.00
2019-01-31T05:36:53.487Z,14.03
2019-01-31T05:39:25.518Z,11.60
2019-01-31T05:41:57.147Z,12.47
2019-01-31T05:44:28.755Z,13.90
2019-01-31T05:47:03.251Z,12.80
2019-01-31T05:49:35.126Z,10.37
2019-01-31T05:52:06.868Z,12.17
2019-01-31T05:54:38.625Z,10.60
2019-01-31T05:57:10.467Z,14.30
2019-01-31T05:59:42.097Z,15.40
2019-01-31T06:02:13.719Z,13.13
2019-01-31T06:04:45.485Z,13.27
2019-01-31T06:07:17.399Z,12.87
2019-01-31T06:09:48.993Z,11.27
2019-01-31T06:12:20.616Z,12.30
2019-01-31T06:14:52.235Z,11.40
2019-01-31T06:17:23.997Z,13.20
2019-01-31T06:19:55.599Z,16.90
2019-01-31T06:22:27.230Z,13.93
2019-01-31T06:24:58.829Z,12.87
2019-01-31T06:27:30.495Z,16.07
2019-01-31T06:30:02.116Z,11.40
2019-01-31T06:32:33.731Z,16.07
2019-01-31T06:35:06.802Z,12.47
2019-01-31T06:37:38.621Z,10.67
2019-01-31T06:40:13.094Z,12.13
2019-01-31T06:42:45.293Z,10.63
2019-01-31T06:45:22.294Z,11.43
2019-01-31T06:47:53.922Z,11.50
2019-01-31T06:50:25.765Z,12.17
2019-01-31T06:52:58.224Z,11.60
2019-01-31T06:55:30.270Z,14.17
2019-01-31T06:58:02.564Z,10.23
2019-01-31T07:00:34.573Z,12.37
2019-01-31T07:03:06.410Z,13.73
2019-01-31T07:05:38.076Z,15.13
2019-01-31T07:08:10.725Z,14.27
2019-01-31T07:10:42.382Z,14.33
2019-01-31T07:13:14.057Z,15.17
2019-01-31T07:15:45.719Z,13.53
2019-01-31T07:18:18.203Z,17.37
2019-01-31T07:20:49.768Z,12.17
2019-01-31T07:23:21.473Z,13.43
2019-01-31T07:25:53.154Z,13.00
2019-01-31T07:28:24.882Z,13.53
2019-01-31T07:30:56.514Z,15.63
2019-01-31T07:33:28.228Z,15.37
2019-01-31T07:35:59.830Z,14.00
2019-01-31T07:38:31.487Z,17.20
2019-01-31T07:41:03.138Z,19.23
2019-01-31T07:43:34.801Z,15.53
2019-01-31T07:46:06.754Z,15.27
2019-01-31T07:48:39.050Z,15.57
2019-01-31T07:51:10.685Z,16.90
2019-01-31T07:53:42.343Z,14.90
2019-01-31T07:56:14.679Z,16.53
2019-01-31T07:58:46.426Z,20.07
2019-01-31T08:01:18.547Z,14.97
2019-01-31T08:04:01.979Z,13.57
2019-01-31T08:06:23.743Z,14.33
2019-01-31T08:08:55.704Z,14.93
2019-01-31T08:11:27.775Z,18.03
2019-01-31T08:13:59.544Z,15.60
2019-01-31T08:16:31.150Z,15.50
2019-01-31T08:19:02.718Z,17.87
2019-01-31T08:21:34.370Z,16.27
2019-01-31T08:24:09.289Z,20.50
2019-01-31T08:26:39.548Z,21.60
2019-01-31T08:29:12.805Z,19.27
2019-01-31T08:31:44.440Z,22.13
2019-01-31T08:34:16.044Z,19.50
2019-01-31T08:36:49.480Z,23.50
2019-01-31T08:39:21.240Z,17.10
2019-01-31T08:42:03.273Z,21.77
2019-01-31T08:44:25.935Z,20.00
2019-01-31T08:46:57.751Z,22.93
2019-01-31T08:49:29.507Z,21.03
2019-01-31T08:52:01.199Z,21.13
2019-01-31T08:54:32.867Z,21.03
2019-01-31T08:57:04.521Z,19.67
2019-01-31T08:59:36.255Z,23.57
2019-01-31T09:02:08.061Z,20.07
2019-01-31T09:04:39.708Z,18.67
2019-01-31T09:07:11.440Z,22.50
2019-01-31T09:09:43.126Z,24.77
2019-01-31T09:12:15.627Z,18.37
2019-01-31T09:14:47.663Z,24.63
2019-01-31T09:17:19.295Z,17.07
2019-01-31T09:19:50.855Z,20.73
2019-01-31T09:22:25.410Z,22.53
2019-01-31T09:25:02.394Z,20.13
2019-01-31T09:28:03.739Z,26.20
2019-01-31T09:30:49.859Z,21.67
2019-01-31T09:33:47.950Z,20.73
2019-01-31T09:36:31.225Z,18.13
2019-01-31T09:39:23.411Z,23.63
2019-01-31T09:42:26.301Z,18.70
2019-01-31T09:45:09.715Z,23.20
2019-01-31T09:47:52.784Z,19.00
2019-01-31T09:50:54.348Z,24.10
2019-01-31T09:53:48.282Z,24.97
2019-01-31T09:56:44.818Z,18.27
2019-01-31T09:59:24.821Z,21.37
2019-01-31T10:02:10.819Z,25.00
2019-01-31T10:04:56.918Z,21.23
2019-01-31T10:07:43.211Z,20.43
2019-01-31T10:10:43.157Z,22.17
2019-01-31T10:13:20.457Z,25.77
2019-01-31T10:16:21.572Z,24.27
2019-01-31T10:19:04.820Z,28.20
2019-01-31T10:21:47.666Z,32.70
2019-01-31T10:24:34.306Z,36.20
2019-01-31T10:27:14.480Z,32.13
2019-01-31T10:30:00.688Z,50.00
2019-01-31T10:32:56.194Z,44.40
2019-01-31T10:35:33.075Z,45.60
2019-01-31T10:38:13.291Z,40.40
2019-01-31T10:40:53.023Z,32.67
2019-01-31T10:43:32.862Z,26.43
2019-01-31T10:46:18.837Z,31.20
2019-01-31T10:49:11.019Z,30.33
2019-01-31T10:51:53.737Z,26.43
2019-01-31T10:54:35.144Z,28.97
2019-01-31T10:57:30.634Z,29.97
2019-01-31T11:00:06.271Z,33.73
2019-01-31T11:02:56.687Z,34.73
2019-01-31T11:05:47.639Z,36.57
2019-01-31T11:08:30.674Z,39.97
2019-01-31T11:11:10.471Z,45.03
2019-01-31T11:14:11.725Z,50.67
2019-01-31T11:17:09.795Z,60.17
2019-01-31T11:19:59.118Z,52.50
2019-01-31T11:22:48.617Z,58.13
2019-01-31T11:25:26.675Z,57.57
2019-01-31T11:28:03.473Z,58.73
2019-01-31T11:30:58.923Z,59.20
2019-01-31T11:33:33.075Z,55.90
2019-01-31T11:36:07.284Z,55.30
2019-01-31T11:39:20.674Z,57.13
2019-01-31T11:42:11.151Z,53.30
2019-01-31T11:45:00.282Z,54.67
2019-01-31T11:47:50.654Z,51.73
2019-01-31T11:50:47.596Z,60.07
2019-01-31T11:53:27.460Z,62.83
2019-01-31T11:56:11.313Z,61.57
2019-01-31T11:58:54.269Z,54.70
2019-01-31T12:01:25.922Z,58.37
2019-01-31T12:03:59.393Z,54.20
2019-01-31T12:06:31.214Z,47.97
2019-01-31T12:09:02.859Z,53.30
2019-01-31T12:11:34.494Z,48.07
2019-01-31T12:14:06.457Z,66.00
2019-01-31T12:16:38.188Z,54.90
2019-01-31T12:19:09.971Z,58.90
2019-01-31T12:21:42.585Z,50.97
2019-01-31T12:24:16.450Z,54.23
2019-01-31T12:26:47.596Z,47.40
2019-01-31T12:29:19.516Z,49.10
2019-01-31T12:31:51.355Z,49.33
2019-01-31T12:34:22.987Z,50.90
2019-01-31T12:36:54.551Z,46.93
2019-01-31T12:39:26.252Z,49.80
2019-01-31T12:41:58.704Z,44.33
2019-01-31T12:44:30.523Z,56.03
2019-01-31T12:47:03.828Z,51.13
2019-01-31T12:49:40.287Z,45.60
2019-01-31T12:52:12.247Z,43.30
2019-01-31T12:54:58.109Z,42.63
2019-01-31T12:57:32.015Z,61.53
2019-01-31T13:00:04.732Z,64.77
2019-01-31T13:02:36.348Z,61.60
2019-01-31T13:05:10.864Z,54.57
2019-01-31T13:07:47.544Z,46.73
2019-01-31T13:10:20.825Z,46.67
2019-01-31T13:12:53.878Z,32.50
2019-01-31T13:15:29.284Z,32.77
2019-01-31T13:18:00.179Z,35.80
2019-01-31T13:20:31.899Z,37.20
2019-01-31T13:23:04.226Z,39.70
2019-01-31T13:25:36.015Z,36.33
2019-01-31T13:28:07.751Z,37.70
2019-01-31T13:30:39.409Z,32.50
2019-01-31T13:33:11.030Z,27.60
2019-01-31T13:35:42.651Z,32.87
2019-01-31T13:38:14.356Z,32.17
2019-01-31T13:40:46.037Z,33.13
2019-01-31T13:43:17.885Z,32.43
2019-01-31T13:45:49.683Z,31.10
2019-01-31T13:48:21.564Z,29.53
2019-01-31T13:50:53.252Z,30.27
2019-01-31T13:53:25.027Z,31.33
2019-01-31T13:55:56.772Z,33.87
2019-01-31T13:58:28.856Z,26.17
2019-01-31T14:01:00.709Z,26.37
2019-01-31T14:03:32.643Z,29.67
2019-01-31T14:06:04.741Z,25.93
2019-01-31T14:08:37.703Z,29.10
2019-01-31T14:11:09.427Z,27.47
2019-01-31T14:13:42.357Z,24.63
2019-01-31T14:16:14.873Z,24.83
2019-01-31T14:18:47.662Z,28.10
2019-01-31T14:21:20.436Z,23.00
2019-01-31T14:23:53.569Z,24.40
2019-01-31T14:26:25.785Z,24.77
2019-01-31T14:28:57.406Z,21.57
2019-01-31T14:31:29.607Z,25.30
2019-01-31T14:34:01.243Z,26.23
2019-01-31T14:36:33.188Z,23.57
2019-01-31T14:39:05.921Z,17.40
2019-01-31T14:41:37.793Z,21.23
2019-01-31T14:44:19.861Z,20.70
2019-01-31T14:46:42.665Z,24.30
2019-01-31T14:49:15.055Z,25.20
2019-01-31T14:51:49.648Z,23.97
2019-01-31T14:54:21.689Z,19.03
2019-01-31T14:56:54.004Z,23.13
2019-01-31T14:59:25.864Z,19.90
2019-01-31T15:01:57.498Z,19.17
2019-01-31T15:04:29.307Z,12.57
2019-01-31T15:07:02.968Z,19.80
2019-01-31T15:09:35.995Z,15.50
2019-01-31T15:12:08.416Z,21.53
2019-01-31T15:14:40.429Z,21.43
2019-01-31T15:17:15.281Z,21.40
2019-01-31T15:19:48.169Z,24.70
2019-01-31T15:22:20.244Z,16.77
2019-01-31T15:24:56.500Z,17.93
2019-01-31T15:27:29.755Z,24.40
2019-01-31T15:30:02.836Z,20.90
2019-01-31T15:32:34.746Z,15.73
2019-01-31T15:35:09.446Z,24.87
2019-01-31T15:37:41.142Z,21.60
2019-01-31T15:40:18.947Z,26.60
2019-01-31T15:42:50.874Z,22.47
2019-01-31T15:45:22.568Z,22.20
2019-01-31T15:47:54.502Z,17.63
2019-01-31T15:50:26.776Z,18.63
2019-01-31T15:52:58.424Z,15.13
2019-01-31T15:55:30.737Z,16.93
2019-01-31T15:58:02.456Z,19.73
2019-01-31T16:00:52.546Z,17.00
2019-01-31T16:03:45.638Z,14.80
2019-01-31T16:06:47.710Z,18.37
2019-01-31T16:09:34.877Z,16.47
2019-01-31T16:12:13.337Z,15.37
2019-01-31T16:14:54.460Z,14.27
2019-01-31T16:17:18.599Z,17.37
2019-01-31T16:20:01.576Z,21.53
2019-01-31T16:22:41.309Z,16.47
2019-01-31T16:25:14.261Z,18.57
2019-01-31T16:27:46.844Z,13.70
2019-01-31T16:30:21.157Z,13.67
2019-01-31T16:32:56.818Z,26.60
2019-01-31T16:35:30.173Z,17.03
2019-01-31T16:38:01.990Z,24.60
2019-01-31T16:40:33.767Z,12.37
2019-01-31T16:43:05.725Z,21.10
2019-01-31T16:45:38.510Z,21.57
2019-01-31T16:48:10.301Z,19.67
2019-01-31T16:50:43.601Z,22.03
2019-01-31T16:53:17.970Z,20.73
2019-01-31T16:55:50.275Z,22.40
2019-01-31T16:58:21.993Z,13.83
2019-01-31T17:00:53.665Z,18.23
2019-01-31T17:03:25.595Z,10.58
2019-01-31T17:05:57.883Z,16.45
2019-01-31T17:08:30.269Z,14.73
2019-01-31T17:11:01.992Z,17.60
2019-01-31T17:13:33.615Z,12.07
2019-01-31T17:16:05.409Z,17.32
2019-01-31T17:18:37.260Z,14.50
2019-01-31T17:21:09.005Z,13.20
2019-01-31T17:23:40.916Z,13.03
2019-01-31T17:26:13.801Z,17.37
2019-01-31T17:28:45.780Z,20.07
2019-01-31T17:31:18.232Z,11.55
2019-01-31T17:33:51.476Z,15.93
2019-01-31T17:36:25.679Z,25.72
2019-01-31T17:38:57.366Z,16.48
2019-01-31T17:41:28.929Z,15.18
2019-01-31T17:44:01.021Z,15.15
2019-01-31T17:46:32.716Z,20.25
2019-01-31T17:49:06.509Z,19.77
2019-01-31T17:51:38.976Z,15.83
2019-01-31T17:54:12.902Z,19.27
2019-01-31T17:56:45.981Z,16.10
2019-01-31T18:02:11.521Z,21.65
2019-01-31T18:04:44.085Z,12.58
2019-01-31T18:07:16.924Z,16.52
2019-01-31T18:09:49.567Z,16.05
2019-01-31T18:12:21.576Z,15.35
2019-01-31T18:14:53.936Z,20.90
2019-01-31T18:17:26.572Z,15.98
2019-01-31T18:20:00.509Z,14.90
2019-01-31T18:22:32.631Z,11.35
2019-01-31T18:25:04.696Z,15.43
2019-01-31T18:27:37.212Z,12.65
2019-01-31T18:30:15.032Z,22.10
2019-01-31T18:32:50.518Z,14.70
2019-01-31T18:35:25.976Z,10.70
2019-01-31T18:37:59.391Z,13.60
2019-01-31T18:40:34.358Z,21.73
2019-01-31T18:43:07.166Z,12.18
2019-01-31T18:45:39.420Z,11.88
2019-01-31T18:48:11.681Z,13.75
2019-01-31T18:50:44.762Z,12.05
2019-01-31T18:53:16.864Z,13.65
2019-01-31T18:55:51.313Z,8.08
2019-01-31T18:58:23.645Z,11.45
2019-01-31T19:00:56.674Z,9.45
2019-01-31T19:03:28.840Z,7.62
2019-01-31T19:06:01.066Z,10.75
2019-01-31T19:08:37.060Z,6.37
2019-01-31T19:11:09.526Z,8.65
2019-01-31T19:13:41.756Z,10.90
2019-01-31T19:16:14.031Z,22.40
2019-01-31T19:18:47.053Z,14.25
2019-01-31T19:21:19.624Z,21.60
2019-01-31T19:23:52.057Z,10.25
2019-01-31T19:26:25.233Z,10.45
2019-01-31T19:28:58.883Z,12.68
2019-01-31T19:31:31.373Z,9.73
2019-01-31T19:34:03.753Z,12.07
2019-01-31T19:36:35.943Z,11.00
2019-01-31T19:39:10.771Z,7.83
2019-01-31T19:41:43.165Z,13.40
2019-01-31T19:44:15.326Z,11.35
2019-01-31T19:46:47.839Z,14.25
2019-01-31T19:49:20.220Z,6.85
2019-01-31T19:51:53.687Z,9.75
2019-01-31T19:54:25.534Z,18.05
2019-01-31T19:56:57.764Z,10.90
2019-01-31T19:59:31.536Z,12.33
2019-01-31T20:02:04.815Z,9.98
2019-01-31T20:04:37.283Z,9.95
2019-01-31T20:07:09.935Z,10.58
2019-01-31T20:09:42.181Z,11.93
2019-01-31T20:12:14.203Z,13.95
2019-01-31T20:14:46.240Z,9.73
2019-01-31T20:17:18.584Z,14.03
2019-01-31T20:19:50.514Z,10.53
2019-01-31T20:22:22.568Z,7.87
2019-01-31T20:24:56.818Z,11.75
2019-01-31T20:27:29.375Z,10.32
2019-01-31T20:30:02.999Z,9.65
2019-01-31T20:35:43.668Z,13.68
2019-01-31T20:38:15.754Z,8.33
2019-01-31T20:40:49.507Z,11.53
2019-01-31T20:43:21.608Z,12.58
2019-01-31T20:45:54.177Z,12.58
2019-01-31T20:48:27.672Z,9.55
2019-01-31T20:51:01.284Z,10.08
2019-01-31T20:53:34.415Z,9.90
2019-01-31T20:56:06.184Z,8.18
2019-01-31T20:58:38.953Z,10.58
2019-01-31T21:01:11.333Z,9.15
2019-01-31T21:03:43.314Z,13.85
2019-01-31T21:06:15.039Z,8.80
2019-01-31T21:08:47.451Z,11.18
2019-01-31T21:11:20.371Z,12.47
2019-01-31T21:13:52.741Z,11.33
2019-01-31T21:16:25.267Z,8.70
2019-01-31T21:18:57.071Z,10.25
2019-01-31T21:21:28.867Z,10.93
2019-01-31T21:24:01.684Z,9.58
2019-01-31T21:26:36.316Z,11.97
2019-01-31T21:29:08.287Z,8.75
2019-01-31T21:31:41.655Z,10.60
2019-01-31T21:34:14.365Z,14.80
2019-01-31T21:36:46.130Z,11.83
2019-01-31T21:39:17.799Z,13.15
2019-01-31T21:41:49.742Z,12.68
2019-01-31T21:44:21.596Z,15.83
2019-01-31T21:47:02.926Z,12.95
2019-01-31T21:49:29.361Z,14.68
2019-01-31T21:52:01.007Z,12.73
2019-01-31T21:54:32.724Z,13.88
2019-01-31T21:57:04.530Z,12.05
2019-01-31T21:59:36.194Z,23.07
2019-01-31T22:02:08.509Z,12.13
2019-01-31T22:04:40.193Z,16.42
2019-01-31T22:07:11.835Z,24.02
2019-01-31T22:09:44.440Z,14.23
2019-01-31T22:12:16.327Z,24.23
2019-01-31T22:14:48.133Z,52.45
2019-01-31T22:17:19.925Z,37.20
2019-01-31T22:19:51.728Z,47.55
2019-01-31T22:22:23.643Z,52.33
2019-01-31T22:24:55.876Z,46.33
2019-01-31T22:27:27.612Z,56.05
2019-01-31T22:29:59.432Z,45.73
2019-01-31T22:32:31.729Z,47.05
2019-01-31T22:35:03.436Z,43.60
2019-01-31T22:37:35.678Z,49.67
2019-01-31T22:40:13.054Z,41.43
2019-01-31T22:42:45.515Z,41.37
2019-01-31T22:45:22.216Z,56.20
2019-01-31T22:47:54.687Z,37.53
2019-01-31T22:50:27.692Z,42.37
2019-01-31T22:52:59.560Z,52.30
2019-01-31T22:55:31.359Z,127.00
2019-01-31T22:58:04.427Z,61.07
2019-01-31T23:00:45.592Z,46.20
2019-01-31T23:03:17.465Z,48.33
2019-01-31T23:05:49.114Z,45.67
2019-01-31T23:08:20.740Z,43.63
2019-01-31T23:10:52.952Z,52.57
2019-01-31T23:13:26.783Z,55.53
2019-01-31T23:15:58.592Z,51.30
2019-01-31T23:18:30.317Z,48.57
2019-01-31T23:21:02.531Z,48.67
2019-01-31T23:23:34.743Z,51.00
2019-01-31T23:26:07.325Z,51.73
2019-01-31T23:28:38.982Z,47.33
2019-01-31T23:31:10.767Z,50.10
2019-01-31T23:33:42.760Z,54.77
2019-01-31T23:36:14.450Z,42.13
2019-01-31T23:38:46.123Z,55.30
2019-01-31T23:41:18.288Z,57.30
2019-01-31T23:43:50.312Z,56.53
2019-01-31T23:46:21.978Z,49.50
2019-01-31T23:48:53.648Z,57.73
2019-01-31T23:51:25.546Z,60.80
2019-01-31T23:53:57.375Z,51.87
2019-01-31T23:56:29.201Z,63.30
2019-01-31T23:59:01.296Z,51.23
